首页
METAR-TAF:

METAR-TAF

机场 :

阿卜杜勒-阿齐兹国王国际机场

吉达, 沙特阿拉伯

纬度: 21-42N, 经度: 039-11E, 海拔: 15米

当前天气观测

该预报发布于22分钟前的14:00 UTC
风速10节,风向西转西北
温度 35°C
湿度 53%
气压 1005 hPa
能见度10公里或以上
1500米以下无云,无积雨云

METAR: OEJN 241400Z 30010KT CAVOK 35/24 Q1005 NOSIG

时间: 17:22 (14:22 UTC)

预报

该预报发布于3小时和22分钟前的11:00 UTC
预报有效从24日的 12点(UTC)到 25日的 18点(UTC)
风速12节,风向西北
能見度: 8000
少量云层高于4000英尺
成为
从 24日的 20点(UTC)到 24日的 22点(UTC)
风速3节,风向多变

TAF: OEJN 241100Z 2412/2518 32012KT 8000 FEW040 BECMG 2420/2422 VRB03KT

超过4000个机场的气象观测和天气预报(METAR&TAF报告)。

可查询的气象台以黄色和红色小点在地图上表示。

将鼠标移到小点上方,可查看气象台名称。

然后点击查看天气观测和预报。

如需切换地图:点击带黑十字的绿色按钮放大地图;点击带横线的绿色按钮缩小地图;或者点击绿色箭头查看邻近地区的地图。


METAR-TAF: